College Corner, OH (45003)

9:02 AM EDT on October 21, 2014 (GMT -0400)
College Corner | Change Station
CLOSE
Current Station
Personal Weather Station
Location: College Corner, OH
Elevation: 997 ft
Nearby Weather Stations

Elev 997 ft 39.57 °N, 84.81 °W | Updated 3 seconds ago

Overcast
Overcast
49.0 °F
Feels Like 49 °F
N
0.0
Wind Variable Wind from NW
Gusts 0.0 mph

Today
High -- | Low -- °F
--% Chance of Precip.
Yesterday
High -- | Low -- °F
Precip. -- in
7:55 AM 6:51 PM
Waning Crescent, 6% visible
Pressure 30.02 in
Visibility 10.0 miles
Clouds Overcast 6000 ft
Windchill 49 °F
Dew Point 43 °F
Humidity 80%
Rainfall 0.00 in
Snow Depth Not available.
UV 0 out of 12
Pollen 1.80 out of 12
Ozone Good
PM2.5 Good
Flu Activity Sporadic
METAR KMWO 211255Z AUTO 33008KT 10SM OVC060 11/06 A3002 RMK AO2 T01100060

More Conditions Fewer Conditions

Pressure 30.02 in
Visibility 10.0 miles
Clouds Overcast 6000 ft
Windchill 49 °F
Dew Point 43 °F
Humidity 80%
Rainfall 0.00 in
Snow Depth Not available.
UV 0 out of 12
Pollen 1.80 out of 12
Ozone Good
PM2.5 Good
Flu Activity Sporadic
METAR KMWO 211255Z AUTO 33008KT 10SM OVC060 11/06 A3002 RMK AO2 T01100060

More Conditions Fewer Conditions

10-Day Weather Forecast

Almanac

Astronomy

Oct. 21, 2014 Rise Set
Actual Time 7:55 AM EDT 6:51 PM EDT
Civil Twilight 7:28 AM EDT 7:18 PM EDT
Nautical Twilight 6:56 AM EDT 7:50 PM EDT
Astronomical Twilight 6:25 AM EDT 8:21 PM EDT
Moon 5:39 AM EDT 5:44 PM EDT
Length of Visible Light 11h 50m
Length of Day
10h 55m
Tomorrow will be 2m 26s shorter.
Waning Crescent, 6% of the Moon is Illuminated
Today
Waning Crescent
Oct 23
New
Oct 30
First Quarter
Nov 6
Full
Nov 14
Last Quarter

Today's Extremes

State Highs State Lows

Community

WunderPhotos

Upload Photos

1,763,656 photos uploaded!

Nearby

Air Quality

  Air Quality AQ Index Pollutant
Yesterday Good
PM2.5
Yesterday Good
OZONE
Current Good
PM2.5
Current Good
OZONE
Tuesday Good
PM2.5
Tuesday Good
OZONE
Wednesday Good
PM2.5
Wednesday Good
OZONE
Thursday Good
PM2.5
Thursday Good
OZONE
Friday Good
PM2.5
Friday Good
OZONE

Snow Depth

Station Depth Elevation
No new snow has been reported.

Earthquake Activity

City Distance Mag. Time & Date
No recent earthquake activity has been reported nearby.
Minimum magnitude displayed is 2.5.

Coastal Water Temperatures

Place Temperature
No Stations Reporting

Nearby Weather Stations